sensor_id;sensor_type;location;lat;lon;timestamp;P1;durP1;ratioP1;P2;durP2;ratioP2
17993;SDS011;9122;48.406;9.984;2023-11-21T00:01:23;3.23;;;1.63;;
17993;SDS011;9122;48.406;9.984;2023-11-21T00:04:07;2.53;;;1.77;;
17993;SDS011;9122;48.406;9.984;2023-11-21T00:06:52;6.03;;;1.77;;
17993;SDS011;9122;48.406;9.984;2023-11-21T00:09:37;2.73;;;1.87;;
17993;SDS011;9122;48.406;9.984;2023-11-21T00:12:21;1.93;;;1.50;;
17993;SDS011;9122;48.406;9.984;2023-11-21T00:15:06;3.03;;;1.40;;
17993;SDS011;9122;48.406;9.984;2023-11-21T00:17:54;2.83;;;1.40;;
17993;SDS011;9122;48.406;9.984;2023-11-21T00:20:39;3.27;;;1.47;;
17993;SDS011;9122;48.406;9.984;2023-11-21T00:23:23;2.97;;;1.47;;
17993;SDS011;9122;48.406;9.984;2023-11-21T00:26:08;2.90;;;1.57;;
17993;SDS011;9122;48.406;9.984;2023-11-21T00:28:52;2.43;;;1.47;;
17993;SDS011;9122;48.406;9.984;2023-11-21T00:31:37;2.90;;;1.43;;
17993;SDS011;9122;48.406;9.984;2023-11-21T00:34:22;2.43;;;1.63;;
17993;SDS011;9122;48.406;9.984;2023-11-21T00:37:07;3.60;;;1.67;;
17993;SDS011;9122;48.406;9.984;2023-11-21T00:39:51;2.87;;;1.67;;
17993;SDS011;9122;48.406;9.984;2023-11-21T00:42:38;2.37;;;1.47;;
17993;SDS011;9122;48.406;9.984;2023-11-21T00:45:23;6.73;;;1.70;;
17993;SDS011;9122;48.406;9.984;2023-11-21T00:48:08;3.73;;;1.60;;
17993;SDS011;9122;48.406;9.984;2023-11-21T00:50:53;3.83;;;2.40;;
17993;SDS011;9122;48.406;9.984;2023-11-21T00:53:40;2.97;;;1.70;;
17993;SDS011;9122;48.406;9.984;2023-11-21T00:56:24;2.00;;;1.80;;
17993;SDS011;9122;48.406;9.984;2023-11-21T00:59:09;3.97;;;1.97;;
17993;SDS011;9122;48.406;9.984;2023-11-21T01:01:54;1.63;;;1.27;;
17993;SDS011;9122;48.406;9.984;2023-11-21T01:04:39;2.43;;;1.50;;
17993;SDS011;9122;48.406;9.984;2023-11-21T01:07:23;4.20;;;2.10;;
17993;SDS011;9122;48.406;9.984;2023-11-21T01:10:07;3.20;;;1.47;;
17993;SDS011;9122;48.406;9.984;2023-11-21T01:12:53;1.67;;;1.47;;
17993;SDS011;9122;48.406;9.984;2023-11-21T01:15:38;2.70;;;1.70;;
17993;SDS011;9122;48.406;9.984;2023-11-21T01:18:22;2.63;;;1.67;;
17993;SDS011;9122;48.406;9.984;2023-11-21T01:21:09;1.70;;;1.57;;
17993;SDS011;9122;48.406;9.984;2023-11-21T01:23:54;3.90;;;1.37;;
17993;SDS011;9122;48.406;9.984;2023-11-21T01:26:39;3.30;;;1.97;;
17993;SDS011;9122;48.406;9.984;2023-11-21T01:29:24;3.40;;;1.80;;
17993;SDS011;9122;48.406;9.984;2023-11-21T01:32:09;5.33;;;2.23;;
17993;SDS011;9122;48.406;9.984;2023-11-21T01:34:53;3.13;;;1.90;;
17993;SDS011;9122;48.406;9.984;2023-11-21T01:37:38;2.40;;;1.73;;
17993;SDS011;9122;48.406;9.984;2023-11-21T01:40:22;3.00;;;1.90;;
17993;SDS011;9122;48.406;9.984;2023-11-21T01:43:08;2.10;;;1.90;;
17993;SDS011;9122;48.406;9.984;2023-11-21T01:45:56;5.43;;;2.03;;
17993;SDS011;9122;48.406;9.984;2023-11-21T01:48:41;4.10;;;1.80;;
17993;SDS011;9122;48.406;9.984;2023-11-21T01:51:26;3.57;;;2.00;;
17993;SDS011;9122;48.406;9.984;2023-11-21T01:54:10;4.43;;;2.57;;
17993;SDS011;9122;48.406;9.984;2023-11-21T01:56:55;2.67;;;1.40;;
17993;SDS011;9122;48.406;9.984;2023-11-21T01:59:40;3.60;;;1.80;;
17993;SDS011;9122;48.406;9.984;2023-11-21T02:02:26;2.90;;;1.90;;
17993;SDS011;9122;48.406;9.984;2023-11-21T02:05:11;4.10;;;2.00;;
17993;SDS011;9122;48.406;9.984;2023-11-21T02:07:56;4.80;;;1.80;;
17993;SDS011;9122;48.406;9.984;2023-11-21T02:10:40;3.07;;;1.30;;
17993;SDS011;9122;48.406;9.984;2023-11-21T02:13:24;2.27;;;1.40;;
17993;SDS011;9122;48.406;9.984;2023-11-21T02:16:09;4.10;;;1.63;;
17993;SDS011;9122;48.406;9.984;2023-11-21T02:18:56;1.80;;;1.07;;
17993;SDS011;9122;48.406;9.984;2023-11-21T02:21:41;1.77;;;1.20;;
17993;SDS011;9122;48.406;9.984;2023-11-21T02:24:28;1.70;;;1.60;;
17993;SDS011;9122;48.406;9.984;2023-11-21T02:27:13;2.63;;;1.10;;
17993;SDS011;9122;48.406;9.984;2023-11-21T02:30:01;2.77;;;1.47;;
17993;SDS011;9122;48.406;9.984;2023-11-21T02:32:51;3.70;;;1.90;;
17993;SDS011;9122;48.406;9.984;2023-11-21T02:35:38;4.60;;;1.60;;
17993;SDS011;9122;48.406;9.984;2023-11-21T02:38:22;1.93;;;1.20;;
17993;SDS011;9122;48.406;9.984;2023-11-21T02:41:07;2.90;;;1.77;;
17993;SDS011;9122;48.406;9.984;2023-11-21T02:43:52;2.67;;;1.60;;
17993;SDS011;9122;48.406;9.984;2023-11-21T02:46:36;2.10;;;1.33;;
17993;SDS011;9122;48.406;9.984;2023-11-21T02:49:23;2.53;;;2.03;;
17993;SDS011;9122;48.406;9.984;2023-11-21T02:52:07;3.40;;;1.80;;
17993;SDS011;9122;48.406;9.984;2023-11-21T02:54:52;3.23;;;1.70;;
17993;SDS011;9122;48.406;9.984;2023-11-21T02:57:37;3.43;;;1.80;;
17993;SDS011;9122;48.406;9.984;2023-11-21T03:00:21;5.30;;;2.60;;
17993;SDS011;9122;48.406;9.984;2023-11-21T03:03:08;6.00;;;2.47;;
17993;SDS011;9122;48.406;9.984;2023-11-21T03:05:52;3.10;;;1.60;;
17993;SDS011;9122;48.406;9.984;2023-11-21T03:08:36;3.10;;;2.30;;
17993;SDS011;9122;48.406;9.984;2023-11-21T03:11:21;4.67;;;1.93;;
17993;SDS011;9122;48.406;9.984;2023-11-21T03:14:05;2.23;;;1.77;;
17993;SDS011;9122;48.406;9.984;2023-11-21T03:16:50;2.43;;;1.77;;
17993;SDS011;9122;48.406;9.984;2023-11-21T03:19:35;3.63;;;1.90;;
17993;SDS011;9122;48.406;9.984;2023-11-21T03:22:19;2.47;;;2.10;;
17993;SDS011;9122;48.406;9.984;2023-11-21T03:25:04;3.13;;;1.67;;
17993;SDS011;9122;48.406;9.984;2023-11-21T03:27:49;4.37;;;2.27;;
17993;SDS011;9122;48.406;9.984;2023-11-21T03:30:33;3.17;;;1.93;;
17993;SDS011;9122;48.406;9.984;2023-11-21T03:33:18;3.37;;;2.00;;
17993;SDS011;9122;48.406;9.984;2023-11-21T03:36:02;2.87;;;1.93;;
17993;SDS011;9122;48.406;9.984;2023-11-21T03:38:47;3.60;;;2.03;;
17993;SDS011;9122;48.406;9.984;2023-11-21T03:41:33;3.77;;;2.17;;
17993;SDS011;9122;48.406;9.984;2023-11-21T03:44:17;2.80;;;1.90;;
17993;SDS011;9122;48.406;9.984;2023-11-21T03:47:02;1.57;;;1.47;;
17993;SDS011;9122;48.406;9.984;2023-11-21T03:49:47;2.57;;;2.00;;
17993;SDS011;9122;48.406;9.984;2023-11-21T03:52:31;3.57;;;1.60;;
17993;SDS011;9122;48.406;9.984;2023-11-21T03:55:16;4.73;;;1.90;;
17993;SDS011;9122;48.406;9.984;2023-11-21T03:58:00;2.57;;;1.43;;
17993;SDS011;9122;48.406;9.984;2023-11-21T04:00:46;5.43;;;2.07;;
17993;SDS011;9122;48.406;9.984;2023-11-21T04:03:33;3.50;;;1.77;;
17993;SDS011;9122;48.406;9.984;2023-11-21T04:06:17;1.90;;;1.43;;
17993;SDS011;9122;48.406;9.984;2023-11-21T04:09:02;2.20;;;1.50;;
17993;SDS011;9122;48.406;9.984;2023-11-21T04:11:48;2.70;;;1.37;;
17993;SDS011;9122;48.406;9.984;2023-11-21T04:14:32;1.73;;;1.50;;
17993;SDS011;9122;48.406;9.984;2023-11-21T04:17:19;4.67;;;1.30;;
17993;SDS011;9122;48.406;9.984;2023-11-21T04:20:04;2.20;;;1.17;;
17993;SDS011;9122;48.406;9.984;2023-11-21T04:22:52;1.20;;;1.10;;
17993;SDS011;9122;48.406;9.984;2023-11-21T04:25:37;3.83;;;1.67;;
17993;SDS011;9122;48.406;9.984;2023-11-21T04:28:22;3.17;;;1.70;;
17993;SDS011;9122;48.406;9.984;2023-11-21T04:31:08;2.07;;;1.40;;
17993;SDS011;9122;48.406;9.984;2023-11-21T04:33:53;1.40;;;1.30;;
17993;SDS011;9122;48.406;9.984;2023-11-21T04:36:37;1.67;;;1.17;;
17993;SDS011;9122;48.406;9.984;2023-11-21T04:39:23;4.33;;;1.93;;
17993;SDS011;9122;48.406;9.984;2023-11-21T04:42:08;2.93;;;1.77;;
17993;SDS011;9122;48.406;9.984;2023-11-21T04:44:52;3.60;;;2.27;;
17993;SDS011;9122;48.406;9.984;2023-11-21T04:47:36;2.60;;;1.70;;
17993;SDS011;9122;48.406;9.984;2023-11-21T04:50:21;4.53;;;2.47;;
17993;SDS011;9122;48.406;9.984;2023-11-21T04:53:06;4.50;;;2.43;;
17993;SDS011;9122;48.406;9.984;2023-11-21T04:55:51;4.17;;;2.60;;
17993;SDS011;9122;48.406;9.984;2023-11-21T04:58:36;4.50;;;2.17;;
17993;SDS011;9122;48.406;9.984;2023-11-21T05:01:21;2.90;;;1.90;;
17993;SDS011;9122;48.406;9.984;2023-11-21T05:04:05;1.43;;;1.33;;
17993;SDS011;9122;48.406;9.984;2023-11-21T05:06:50;3.60;;;1.40;;
17993;SDS011;9122;48.406;9.984;2023-11-21T05:09:34;3.53;;;1.90;;
17993;SDS011;9122;48.406;9.984;2023-11-21T05:12:19;2.90;;;1.73;;
17993;SDS011;9122;48.406;9.984;2023-11-21T05:15:04;3.23;;;2.20;;
17993;SDS011;9122;48.406;9.984;2023-11-21T05:17:55;5.03;;;2.10;;
17993;SDS011;9122;48.406;9.984;2023-11-21T05:20:44;3.33;;;2.03;;
17993;SDS011;9122;48.406;9.984;2023-11-21T05:23:28;3.13;;;2.37;;
17993;SDS011;9122;48.406;9.984;2023-11-21T05:26:13;2.23;;;1.97;;
17993;SDS011;9122;48.406;9.984;2023-11-21T05:28:57;2.43;;;2.20;;
17993;SDS011;9122;48.406;9.984;2023-11-21T05:31:42;2.97;;;2.30;;
17993;SDS011;9122;48.406;9.984;2023-11-21T05:34:27;4.57;;;2.53;;
17993;SDS011;9122;48.406;9.984;2023-11-21T05:37:23;3.07;;;2.40;;
17993;SDS011;9122;48.406;9.984;2023-11-21T05:40:09;2.80;;;2.50;;
17993;SDS011;9122;48.406;9.984;2023-11-21T05:42:54;3.53;;;2.00;;
17993;SDS011;9122;48.406;9.984;2023-11-21T05:45:39;7.23;;;2.10;;
17993;SDS011;9122;48.406;9.984;2023-11-21T05:48:24;3.67;;;2.30;;
17993;SDS011;9122;48.406;9.984;2023-11-21T05:51:09;3.97;;;1.87;;
17993;SDS011;9122;48.406;9.984;2023-11-21T05:53:56;3.43;;;2.07;;
17993;SDS011;9122;48.406;9.984;2023-11-21T05:56:40;2.10;;;1.50;;
17993;SDS011;9122;48.406;9.984;2023-11-21T05:59:25;2.13;;;1.70;;
17993;SDS011;9122;48.406;9.984;2023-11-21T06:02:09;2.13;;;2.00;;
17993;SDS011;9122;48.406;9.984;2023-11-21T06:04:54;2.70;;;1.73;;
17993;SDS011;9122;48.406;9.984;2023-11-21T06:07:39;3.73;;;2.20;;
17993;SDS011;9122;48.406;9.984;2023-11-21T06:10:24;3.87;;;2.20;;
17993;SDS011;9122;48.406;9.984;2023-11-21T06:13:09;3.63;;;2.10;;
17993;SDS011;9122;48.406;9.984;2023-11-21T06:15:55;3.23;;;2.20;;
17993;SDS011;9122;48.406;9.984;2023-11-21T06:18:41;2.40;;;2.20;;
17993;SDS011;9122;48.406;9.984;2023-11-21T06:21:25;2.57;;;2.10;;
17993;SDS011;9122;48.406;9.984;2023-11-21T06:24:10;3.53;;;2.07;;
17993;SDS011;9122;48.406;9.984;2023-11-21T06:26:55;4.40;;;2.27;;
17993;SDS011;9122;48.406;9.984;2023-11-21T06:29:40;3.17;;;1.73;;
17993;SDS011;9122;48.406;9.984;2023-11-21T06:32:26;3.13;;;2.03;;
17993;SDS011;9122;48.406;9.984;2023-11-21T06:35:16;2.53;;;1.90;;
17993;SDS011;9122;48.406;9.984;2023-11-21T06:38:01;2.07;;;1.80;;
17993;SDS011;9122;48.406;9.984;2023-11-21T06:40:46;3.90;;;2.13;;
17993;SDS011;9122;48.406;9.984;2023-11-21T06:43:32;2.63;;;2.40;;
17993;SDS011;9122;48.406;9.984;2023-11-21T06:46:16;4.00;;;2.10;;
17993;SDS011;9122;48.406;9.984;2023-11-21T06:49:02;2.77;;;2.37;;
17993;SDS011;9122;48.406;9.984;2023-11-21T06:51:47;2.53;;;2.30;;
17993;SDS011;9122;48.406;9.984;2023-11-21T06:54:31;2.87;;;2.10;;
17993;SDS011;9122;48.406;9.984;2023-11-21T06:57:16;2.40;;;2.20;;
17993;SDS011;9122;48.406;9.984;2023-11-21T07:00:02;1.97;;;1.83;;
17993;SDS011;9122;48.406;9.984;2023-11-21T07:02:54;4.90;;;2.73;;
17993;SDS011;9122;48.406;9.984;2023-11-21T07:05:38;1.93;;;1.80;;
17993;SDS011;9122;48.406;9.984;2023-11-21T07:08:23;2.97;;;2.33;;
17993;SDS011;9122;48.406;9.984;2023-11-21T07:11:07;2.43;;;2.23;;
17993;SDS011;9122;48.406;9.984;2023-11-21T07:13:52;2.53;;;2.33;;
17993;SDS011;9122;48.406;9.984;2023-11-21T07:16:37;3.83;;;2.57;;
17993;SDS011;9122;48.406;9.984;2023-11-21T07:19:22;2.73;;;2.30;;
17993;SDS011;9122;48.406;9.984;2023-11-21T07:22:06;2.00;;;1.87;;
17993;SDS011;9122;48.406;9.984;2023-11-21T07:24:52;2.13;;;1.90;;
17993;SDS011;9122;48.406;9.984;2023-11-21T07:27:36;2.53;;;2.20;;
17993;SDS011;9122;48.406;9.984;2023-11-21T07:30:21;1.80;;;1.70;;
17993;SDS011;9122;48.406;9.984;2023-11-21T07:33:06;3.47;;;2.10;;
17993;SDS011;9122;48.406;9.984;2023-11-21T07:35:51;2.13;;;2.00;;
17993;SDS011;9122;48.406;9.984;2023-11-21T07:38:35;2.80;;;2.20;;
17993;SDS011;9122;48.406;9.984;2023-11-21T07:41:20;2.33;;;1.83;;
17993;SDS011;9122;48.406;9.984;2023-11-21T07:44:04;5.33;;;2.77;;
17993;SDS011;9122;48.406;9.984;2023-11-21T07:46:50;2.60;;;2.40;;
17993;SDS011;9122;48.406;9.984;2023-11-21T07:49:34;2.33;;;2.00;;
17993;SDS011;9122;48.406;9.984;2023-11-21T07:52:19;3.30;;;2.47;;
17993;SDS011;9122;48.406;9.984;2023-11-21T07:55:05;1.70;;;1.60;;
17993;SDS011;9122;48.406;9.984;2023-11-21T07:57:51;4.50;;;2.23;;
17993;SDS011;9122;48.406;9.984;2023-11-21T08:00:35;2.07;;;1.87;;
17993;SDS011;9122;48.406;9.984;2023-11-21T08:03:19;5.03;;;1.73;;
17993;SDS011;9122;48.406;9.984;2023-11-21T08:06:05;5.13;;;2.77;;
17993;SDS011;9122;48.406;9.984;2023-11-21T08:08:49;2.03;;;1.83;;
17993;SDS011;9122;48.406;9.984;2023-11-21T08:11:34;2.40;;;2.27;;
17993;SDS011;9122;48.406;9.984;2023-11-21T08:14:18;3.10;;;1.97;;
17993;SDS011;9122;48.406;9.984;2023-11-21T08:17:04;2.33;;;2.13;;
17993;SDS011;9122;48.406;9.984;2023-11-21T08:19:48;2.10;;;1.90;;
17993;SDS011;9122;48.406;9.984;2023-11-21T08:22:34;2.00;;;1.83;;
17993;SDS011;9122;48.406;9.984;2023-11-21T08:25:19;3.07;;;2.20;;
17993;SDS011;9122;48.406;9.984;2023-11-21T08:28:04;2.50;;;2.23;;
17993;SDS011;9122;48.406;9.984;2023-11-21T08:30:49;3.37;;;2.40;;
17993;SDS011;9122;48.406;9.984;2023-11-21T08:33:33;1.90;;;1.80;;
17993;SDS011;9122;48.406;9.984;2023-11-21T08:36:18;3.60;;;2.37;;
17993;SDS011;9122;48.406;9.984;2023-11-21T08:39:03;2.27;;;2.13;;
17993;SDS011;9122;48.406;9.984;2023-11-21T08:41:47;2.10;;;1.90;;
17993;SDS011;9122;48.406;9.984;2023-11-21T08:44:31;1.87;;;1.77;;
17993;SDS011;9122;48.406;9.984;2023-11-21T08:47:16;2.93;;;2.03;;
17993;SDS011;9122;48.406;9.984;2023-11-21T08:50:00;2.20;;;2.00;;
17993;SDS011;9122;48.406;9.984;2023-11-21T08:52:44;2.27;;;2.07;;
17993;SDS011;9122;48.406;9.984;2023-11-21T08:55:29;1.90;;;1.73;;
17993;SDS011;9122;48.406;9.984;2023-11-21T08:58:14;3.60;;;1.93;;
17993;SDS011;9122;48.406;9.984;2023-11-21T09:00:59;2.63;;;2.00;;
17993;SDS011;9122;48.406;9.984;2023-11-21T09:03:44;2.10;;;1.70;;
17993;SDS011;9122;48.406;9.984;2023-11-21T09:06:28;3.33;;;2.07;;
17993;SDS011;9122;48.406;9.984;2023-11-21T09:09:13;2.40;;;2.10;;
17993;SDS011;9122;48.406;9.984;2023-11-21T09:11:57;2.10;;;1.77;;
17993;SDS011;9122;48.406;9.984;2023-11-21T09:14:44;2.90;;;1.93;;
17993;SDS011;9122;48.406;9.984;2023-11-21T09:17:29;4.43;;;2.10;;
17993;SDS011;9122;48.406;9.984;2023-11-21T09:20:13;2.20;;;2.00;;
17993;SDS011;9122;48.406;9.984;2023-11-21T09:22:58;2.33;;;2.10;;
17993;SDS011;9122;48.406;9.984;2023-11-21T09:25:42;3.57;;;2.63;;
17993;SDS011;9122;48.406;9.984;2023-11-21T09:28:29;2.67;;;1.90;;
17993;SDS011;9122;48.406;9.984;2023-11-21T09:31:14;4.33;;;2.60;;
17993;SDS011;9122;48.406;9.984;2023-11-21T09:34:06;2.30;;;2.20;;
17993;SDS011;9122;48.406;9.984;2023-11-21T09:36:50;3.10;;;2.20;;
17993;SDS011;9122;48.406;9.984;2023-11-21T09:39:35;3.70;;;2.80;;
17993;SDS011;9122;48.406;9.984;2023-11-21T09:42:23;3.00;;;2.57;;
17993;SDS011;9122;48.406;9.984;2023-11-21T09:45:15;3.40;;;2.63;;
17993;SDS011;9122;48.406;9.984;2023-11-21T09:48:12;3.40;;;2.30;;
17993;SDS011;9122;48.406;9.984;2023-11-21T09:50:58;2.63;;;2.43;;
17993;SDS011;9122;48.406;9.984;2023-11-21T09:53:47;4.37;;;2.33;;
17993;SDS011;9122;48.406;9.984;2023-11-21T09:56:36;2.63;;;2.30;;
17993;SDS011;9122;48.406;9.984;2023-11-21T09:59:21;2.77;;;2.57;;
17993;SDS011;9122;48.406;9.984;2023-11-21T10:02:06;2.43;;;2.23;;
17993;SDS011;9122;48.406;9.984;2023-11-21T10:04:56;2.43;;;2.23;;
17993;SDS011;9122;48.406;9.984;2023-11-21T10:07:45;1.77;;;1.67;;
17993;SDS011;9122;48.406;9.984;2023-11-21T10:10:30;2.13;;;2.03;;
17993;SDS011;9122;48.406;9.984;2023-11-21T10:13:16;2.67;;;2.20;;
17993;SDS011;9122;48.406;9.984;2023-11-21T10:16:03;2.50;;;2.23;;
17993;SDS011;9122;48.406;9.984;2023-11-21T10:18:49;2.03;;;1.93;;
17993;SDS011;9122;48.406;9.984;2023-11-21T10:21:39;1.93;;;1.80;;
17993;SDS011;9122;48.406;9.984;2023-11-21T10:24:24;2.33;;;2.07;;
17993;SDS011;9122;48.406;9.984;2023-11-21T10:27:08;3.17;;;1.63;;
17993;SDS011;9122;48.406;9.984;2023-11-21T10:29:53;1.80;;;1.70;;
17993;SDS011;9122;48.406;9.984;2023-11-21T10:32:39;2.13;;;1.93;;
17993;SDS011;9122;48.406;9.984;2023-11-21T10:35:24;2.57;;;1.97;;
17993;SDS011;9122;48.406;9.984;2023-11-21T10:38:08;2.23;;;2.03;;
17993;SDS011;9122;48.406;9.984;2023-11-21T10:40:54;2.33;;;1.73;;
17993;SDS011;9122;48.406;9.984;2023-11-21T10:43:38;1.47;;;1.10;;
17993;SDS011;9122;48.406;9.984;2023-11-21T10:46:23;0.93;;;0.93;;
17993;SDS011;9122;48.406;9.984;2023-11-21T10:49:09;1.90;;;1.30;;
17993;SDS011;9122;48.406;9.984;2023-11-21T10:51:55;1.30;;;1.20;;
17993;SDS011;9122;48.406;9.984;2023-11-21T10:54:40;1.23;;;1.13;;
17993;SDS011;9122;48.406;9.984;2023-11-21T10:57:24;1.37;;;1.27;;
17993;SDS011;9122;48.406;9.984;2023-11-21T11:00:13;1.07;;;0.97;;
17993;SDS011;9122;48.406;9.984;2023-11-21T11:03:00;1.07;;;1.07;;
17993;SDS011;9122;48.406;9.984;2023-11-21T11:05:45;0.80;;;0.60;;
17993;SDS011;9122;48.406;9.984;2023-11-21T11:08:34;0.60;;;0.60;;
17993;SDS011;9122;48.406;9.984;2023-11-21T11:11:20;0.73;;;0.70;;
17993;SDS011;9122;48.406;9.984;2023-11-21T11:14:04;0.60;;;0.50;;
17993;SDS011;9122;48.406;9.984;2023-11-21T11:16:50;0.67;;;0.67;;
17993;SDS011;9122;48.406;9.984;2023-11-21T11:19:37;1.77;;;0.90;;
17993;SDS011;9122;48.406;9.984;2023-11-21T11:25:27;0.30;;;0.30;;
17993;SDS011;9122;48.406;9.984;2023-11-21T11:28:46;0.33;;;0.30;;
17993;SDS011;9122;48.406;9.984;2023-11-21T11:34:53;0.60;;;0.60;;
17993;SDS011;9122;48.406;9.984;2023-11-21T11:37:45;1.50;;;0.50;;
17993;SDS011;9122;48.406;9.984;2023-11-21T11:40:39;0.30;;;0.30;;
17993;SDS011;9122;48.406;9.984;2023-11-21T11:43:26;0.37;;;0.37;;
17993;SDS011;9122;48.406;9.984;2023-11-21T11:46:11;0.40;;;0.40;;
17993;SDS011;9122;48.406;9.984;2023-11-21T11:49:02;2.40;;;0.70;;
17993;SDS011;9122;48.406;9.984;2023-11-21T11:51:47;0.50;;;0.50;;
17993;SDS011;9122;48.406;9.984;2023-11-21T11:54:35;0.47;;;0.47;;
17993;SDS011;9122;48.406;9.984;2023-11-21T11:57:23;0.50;;;0.50;;
17993;SDS011;9122;48.406;9.984;2023-11-21T12:00:12;0.53;;;0.53;;
17993;SDS011;9122;48.406;9.984;2023-11-21T12:03:00;1.47;;;0.53;;
17993;SDS011;9122;48.406;9.984;2023-11-21T12:05:46;0.30;;;0.30;;
17993;SDS011;9122;48.406;9.984;2023-11-21T12:08:34;1.20;;;0.70;;
17993;SDS011;9122;48.406;9.984;2023-11-21T12:11:19;0.30;;;0.30;;
17993;SDS011;9122;48.406;9.984;2023-11-21T12:14:03;1.17;;;0.50;;
17993;SDS011;9122;48.406;9.984;2023-11-21T12:16:49;0.60;;;0.60;;
17993;SDS011;9122;48.406;9.984;2023-11-21T12:19:35;0.33;;;0.33;;
17993;SDS011;9122;48.406;9.984;2023-11-21T12:22:19;0.30;;;0.30;;
17993;SDS011;9122;48.406;9.984;2023-11-21T12:25:04;1.07;;;0.20;;
17993;SDS011;9122;48.406;9.984;2023-11-21T12:27:49;1.13;;;0.30;;
17993;SDS011;9122;48.406;9.984;2023-11-21T12:30:35;1.27;;;0.40;;
17993;SDS011;9122;48.406;9.984;2023-11-21T12:33:21;0.40;;;0.40;;
17993;SDS011;9122;48.406;9.984;2023-11-21T12:36:06;0.20;;;0.20;;
17993;SDS011;9122;48.406;9.984;2023-11-21T12:38:54;0.30;;;0.30;;
17993;SDS011;9122;48.406;9.984;2023-11-21T12:41:38;0.30;;;0.30;;
17993;SDS011;9122;48.406;9.984;2023-11-21T12:44:23;0.20;;;0.20;;
17993;SDS011;9122;48.406;9.984;2023-11-21T12:47:07;0.40;;;0.40;;
17993;SDS011;9122;48.406;9.984;2023-11-21T12:49:52;0.40;;;0.40;;
17993;SDS011;9122;48.406;9.984;2023-11-21T12:52:36;0.50;;;0.50;;
17993;SDS011;9122;48.406;9.984;2023-11-21T12:55:23;0.87;;;0.50;;
17993;SDS011;9122;48.406;9.984;2023-11-21T12:58:08;0.60;;;0.57;;
17993;SDS011;9122;48.406;9.984;2023-11-21T13:00:53;0.80;;;0.70;;
17993;SDS011;9122;48.406;9.984;2023-11-21T13:03:40;0.63;;;0.60;;
17993;SDS011;9122;48.406;9.984;2023-11-21T13:06:28;0.60;;;0.60;;
17993;SDS011;9122;48.406;9.984;2023-11-21T13:09:17;0.40;;;0.40;;
17993;SDS011;9122;48.406;9.984;2023-11-21T13:12:06;0.50;;;0.50;;
17993;SDS011;9122;48.406;9.984;2023-11-21T13:14:52;2.13;;;1.07;;
17993;SDS011;9122;48.406;9.984;2023-11-21T13:17:37;3.90;;;2.40;;
17993;SDS011;9122;48.406;9.984;2023-11-21T13:20:22;1.00;;;0.90;;
17993;SDS011;9122;48.406;9.984;2023-11-21T13:23:10;1.17;;;0.80;;
17993;SDS011;9122;48.406;9.984;2023-11-21T13:25:59;0.70;;;0.70;;
17993;SDS011;9122;48.406;9.984;2023-11-21T13:28:47;0.50;;;0.50;;
17993;SDS011;9122;48.406;9.984;2023-11-21T13:31:32;0.83;;;0.83;;
17993;SDS011;9122;48.406;9.984;2023-11-21T13:34:20;0.50;;;0.50;;
17993;SDS011;9122;48.406;9.984;2023-11-21T13:37:06;0.30;;;0.30;;
17993;SDS011;9122;48.406;9.984;2023-11-21T13:39:51;0.60;;;0.60;;
17993;SDS011;9122;48.406;9.984;2023-11-21T13:42:36;0.43;;;0.40;;
17993;SDS011;9122;48.406;9.984;2023-11-21T13:45:21;0.40;;;0.40;;
17993;SDS011;9122;48.406;9.984;2023-11-21T13:48:06;0.70;;;0.70;;
17993;SDS011;9122;48.406;9.984;2023-11-21T13:50:54;0.50;;;0.50;;
17993;SDS011;9122;48.406;9.984;2023-11-21T13:53:42;0.63;;;0.63;;
17993;SDS011;9122;48.406;9.984;2023-11-21T13:56:26;0.30;;;0.30;;
17993;SDS011;9122;48.406;9.984;2023-11-21T13:59:12;0.70;;;0.70;;
17993;SDS011;9122;48.406;9.984;2023-11-21T14:02:04;1.10;;;0.83;;
17993;SDS011;9122;48.406;9.984;2023-11-21T14:05:01;0.70;;;0.70;;
17993;SDS011;9122;48.406;9.984;2023-11-21T14:07:52;0.90;;;0.90;;
17993;SDS011;9122;48.406;9.984;2023-11-21T14:10:39;0.70;;;0.67;;
17993;SDS011;9122;48.406;9.984;2023-11-21T14:13:26;0.80;;;0.80;;
17993;SDS011;9122;48.406;9.984;2023-11-21T14:16:11;1.00;;;1.00;;
17993;SDS011;9122;48.406;9.984;2023-11-21T14:18:55;1.10;;;1.10;;
17993;SDS011;9122;48.406;9.984;2023-11-21T14:21:45;1.20;;;1.10;;
17993;SDS011;9122;48.406;9.984;2023-11-21T14:24:30;1.10;;;1.10;;
17993;SDS011;9122;48.406;9.984;2023-11-21T14:27:15;1.33;;;1.20;;
17993;SDS011;9122;48.406;9.984;2023-11-21T14:30:00;0.80;;;0.80;;
17993;SDS011;9122;48.406;9.984;2023-11-21T14:32:45;0.90;;;0.90;;
17993;SDS011;9122;48.406;9.984;2023-11-21T14:35:29;1.10;;;1.10;;
17993;SDS011;9122;48.406;9.984;2023-11-21T14:38:16;1.20;;;0.93;;
17993;SDS011;9122;48.406;9.984;2023-11-21T14:41:05;1.20;;;1.20;;
17993;SDS011;9122;48.406;9.984;2023-11-21T14:43:52;0.90;;;0.90;;
17993;SDS011;9122;48.406;9.984;2023-11-21T14:46:38;1.40;;;1.30;;
17993;SDS011;9122;48.406;9.984;2023-11-21T14:49:24;2.80;;;1.43;;
17993;SDS011;9122;48.406;9.984;2023-11-21T14:52:11;1.27;;;1.17;;
17993;SDS011;9122;48.406;9.984;2023-11-21T14:55:16;1.30;;;1.30;;
17993;SDS011;9122;48.406;9.984;2023-11-21T14:58:17;1.17;;;1.07;;
17993;SDS011;9122;48.406;9.984;2023-11-21T15:01:11;1.60;;;1.50;;
17993;SDS011;9122;48.406;9.984;2023-11-21T15:03:57;1.70;;;1.60;;
17993;SDS011;9122;48.406;9.984;2023-11-21T15:06:42;1.50;;;1.40;;
17993;SDS011;9122;48.406;9.984;2023-11-21T15:09:27;2.10;;;1.90;;
17993;SDS011;9122;48.406;9.984;2023-11-21T15:12:17;1.30;;;1.20;;
17993;SDS011;9122;48.406;9.984;2023-11-21T15:15:07;1.40;;;1.40;;
17993;SDS011;9122;48.406;9.984;2023-11-21T15:17:54;1.10;;;1.10;;
17993;SDS011;9122;48.406;9.984;2023-11-21T15:20:41;2.20;;;1.30;;
17993;SDS011;9122;48.406;9.984;2023-11-21T15:23:26;1.70;;;1.60;;
17993;SDS011;9122;48.406;9.984;2023-11-21T15:26:11;1.50;;;1.40;;
17993;SDS011;9122;48.406;9.984;2023-11-21T15:29:04;1.30;;;1.20;;
17993;SDS011;9122;48.406;9.984;2023-11-21T15:32:18;1.40;;;1.30;;
17993;SDS011;9122;48.406;9.984;2023-11-21T15:35:02;1.23;;;1.23;;
17993;SDS011;9122;48.406;9.984;2023-11-21T15:37:47;1.20;;;1.20;;
17993;SDS011;9122;48.406;9.984;2023-11-21T15:40:32;1.73;;;1.50;;
17993;SDS011;9122;48.406;9.984;2023-11-21T15:43:16;1.40;;;1.30;;
17993;SDS011;9122;48.406;9.984;2023-11-21T15:46:00;1.60;;;1.50;;
17993;SDS011;9122;48.406;9.984;2023-11-21T15:48:50;1.90;;;1.80;;
17993;SDS011;9122;48.406;9.984;2023-11-21T15:51:38;1.73;;;1.63;;
17993;SDS011;9122;48.406;9.984;2023-11-21T15:54:42;2.10;;;2.00;;
17993;SDS011;9122;48.406;9.984;2023-11-21T15:57:38;1.93;;;1.30;;
17993;SDS011;9122;48.406;9.984;2023-11-21T16:00:22;1.10;;;1.10;;
17993;SDS011;9122;48.406;9.984;2023-11-21T16:03:08;1.10;;;1.10;;
17993;SDS011;9122;48.406;9.984;2023-11-21T16:05:53;0.90;;;0.90;;
17993;SDS011;9122;48.406;9.984;2023-11-21T16:08:38;0.60;;;0.60;;
17993;SDS011;9122;48.406;9.984;2023-11-21T16:11:23;0.83;;;0.80;;
17993;SDS011;9122;48.406;9.984;2023-11-21T16:14:07;1.13;;;0.90;;
17993;SDS011;9122;48.406;9.984;2023-11-21T16:16:55;1.00;;;0.90;;
17993;SDS011;9122;48.406;9.984;2023-11-21T16:19:41;0.97;;;0.90;;
17993;SDS011;9122;48.406;9.984;2023-11-21T16:22:26;0.97;;;0.83;;
17993;SDS011;9122;48.406;9.984;2023-11-21T16:25:12;1.70;;;1.40;;
17993;SDS011;9122;48.406;9.984;2023-11-21T16:27:57;1.57;;;0.83;;
17993;SDS011;9122;48.406;9.984;2023-11-21T16:30:49;1.17;;;0.90;;
17993;SDS011;9122;48.406;9.984;2023-11-21T16:33:36;1.40;;;1.30;;
17993;SDS011;9122;48.406;9.984;2023-11-21T16:36:21;1.27;;;1.17;;
17993;SDS011;9122;48.406;9.984;2023-11-21T16:39:15;1.23;;;1.13;;
17993;SDS011;9122;48.406;9.984;2023-11-21T16:42:05;1.77;;;1.10;;
17993;SDS011;9122;48.406;9.984;2023-11-21T16:44:50;0.83;;;0.83;;
17993;SDS011;9122;48.406;9.984;2023-11-21T16:47:36;1.23;;;1.13;;
17993;SDS011;9122;48.406;9.984;2023-11-21T16:50:21;1.27;;;0.77;;
17993;SDS011;9122;48.406;9.984;2023-11-21T16:53:08;0.77;;;0.77;;
17993;SDS011;9122;48.406;9.984;2023-11-21T16:55:58;0.70;;;0.63;;
17993;SDS011;9122;48.406;9.984;2023-11-21T16:58:44;0.90;;;0.90;;
17993;SDS011;9122;48.406;9.984;2023-11-21T17:01:29;0.77;;;0.77;;